createdAt,value
2019-03-05T00:00:05.299Z,6.19
2019-03-05T00:01:05.301Z,6.19
2019-03-05T00:02:05.836Z,6.19
2019-03-05T00:03:05.932Z,6.19
2019-03-05T00:04:05.217Z,6.19
2019-03-05T00:05:05.765Z,6.19
2019-03-05T00:06:05.058Z,6.19
2019-03-05T00:07:05.546Z,6.19
2019-03-05T00:08:06.101Z,6.25
2019-03-05T00:09:06.013Z,6.25
2019-03-05T00:10:05.440Z,6.25
2019-03-05T00:11:05.537Z,6.25
2019-03-05T00:12:06.015Z,6.25
2019-03-05T00:13:05.451Z,6.31
2019-03-05T00:14:05.677Z,6.25
2019-03-05T00:15:05.616Z,6.31
2019-03-05T00:16:05.767Z,6.31
2019-03-05T00:17:05.861Z,6.31
2019-03-05T00:18:05.912Z,6.31
2019-03-05T00:19:06.019Z,6.31
2019-03-05T00:20:05.446Z,6.38
2019-03-05T00:21:05.643Z,6.38
2019-03-05T00:22:05.518Z,6.38
2019-03-05T00:23:08.186Z,6.38
2019-03-05T00:24:05.845Z,6.44
2019-03-05T00:25:05.853Z,6.44
2019-03-05T00:26:05.440Z,6.44
2019-03-05T00:27:06.109Z,6.44
2019-03-05T00:28:06.000Z,6.50
2019-03-05T00:29:05.040Z,6.50
2019-03-05T00:30:05.610Z,6.50
2019-03-05T00:31:05.686Z,6.56
2019-03-05T00:32:05.839Z,6.56
2019-03-05T00:33:06.896Z,6.62
2019-03-05T00:34:05.921Z,6.56
2019-03-05T00:35:06.105Z,6.62
2019-03-05T00:36:05.053Z,6.62
2019-03-05T00:37:05.211Z,6.62
2019-03-05T00:38:05.212Z,6.62
2019-03-05T00:39:05.124Z,6.62
2019-03-05T00:40:05.291Z,6.62
2019-03-05T00:41:05.458Z,6.69
2019-03-05T00:42:05.439Z,6.69
2019-03-05T00:43:05.154Z,6.69
2019-03-05T00:44:05.129Z,6.69
2019-03-05T00:45:05.776Z,6.69
2019-03-05T00:46:05.112Z,6.69
2019-03-05T00:47:05.196Z,6.69
2019-03-05T00:48:05.374Z,6.69
2019-03-05T00:49:05.461Z,6.69
2019-03-05T00:50:05.127Z,6.75
2019-03-05T00:51:05.701Z,6.75
2019-03-05T00:52:05.692Z,6.75
2019-03-05T00:53:05.786Z,6.81
2019-03-05T00:54:05.699Z,6.81
2019-03-05T00:55:05.772Z,6.81
2019-03-05T00:56:05.292Z,6.81
2019-03-05T00:57:05.534Z,6.88
2019-03-05T00:58:05.924Z,6.88
2019-03-05T00:59:05.299Z,6.88
2019-03-05T01:00:05.462Z,6.88
2019-03-05T01:01:05.938Z,6.88
2019-03-05T01:02:06.024Z,6.88
2019-03-05T01:03:05.211Z,7.12
2019-03-05T01:04:05.542Z,7.25
2019-03-05T01:05:05.771Z,7.25
2019-03-05T01:06:05.302Z,7.25
2019-03-05T01:07:05.277Z,7.25
2019-03-05T01:08:05.633Z,7.38
2019-03-05T01:09:05.545Z,7.31
2019-03-05T01:10:06.008Z,7.50
2019-03-05T01:11:05.133Z,7.50
2019-03-05T01:12:05.700Z,7.62
2019-03-05T01:13:05.242Z,7.50
2019-03-05T01:14:05.350Z,7.50
2019-03-05T01:15:05.783Z,7.56
2019-03-05T01:16:05.219Z,7.56
2019-03-05T01:17:05.390Z,7.62
2019-03-05T01:18:05.464Z,7.62
2019-03-05T01:19:05.632Z,7.62
2019-03-05T01:20:05.610Z,7.62
2019-03-05T01:21:05.704Z,7.62
2019-03-05T01:22:05.230Z,7.56
2019-03-05T01:23:05.298Z,7.62
2019-03-05T01:24:05.459Z,7.62
2019-03-05T01:25:05.433Z,7.62
2019-03-05T01:26:05.605Z,7.75
2019-03-05T01:27:05.794Z,7.75
2019-03-05T01:28:05.924Z,7.69
2019-03-05T01:29:05.293Z,7.62
2019-03-05T01:30:05.771Z,7.56
2019-03-05T01:31:05.877Z,7.50
2019-03-05T01:32:05.995Z,7.44
2019-03-05T01:33:05.941Z,7.44
2019-03-05T01:34:06.016Z,7.38
2019-03-05T01:35:05.226Z,7.31
2019-03-05T01:36:05.215Z,7.31
2019-03-05T01:37:05.216Z,7.25
2019-03-05T01:38:05.287Z,7.25
2019-03-05T01:39:05.517Z,7.25
2019-03-05T01:40:05.780Z,7.25
2019-03-05T01:41:05.941Z,7.25
2019-03-05T01:42:05.374Z,7.25
2019-03-05T01:43:05.854Z,7.25
2019-03-05T01:44:05.298Z,7.25
2019-03-05T01:45:05.387Z,7.25
2019-03-05T01:46:05.548Z,7.25
2019-03-05T01:47:05.353Z,7.25
2019-03-05T01:48:05.606Z,7.25
2019-03-05T01:49:06.003Z,7.19
2019-03-05T01:50:05.358Z,7.19
2019-03-05T01:51:05.861Z,7.19
2019-03-05T01:52:05.907Z,7.12
2019-03-05T01:53:05.056Z,7.12
2019-03-05T01:54:05.204Z,7.12
2019-03-05T01:55:05.293Z,7.12
2019-03-05T01:56:05.771Z,7.06
2019-03-05T01:57:05.954Z,7.06
2019-03-05T01:58:06.064Z,7.06
2019-03-05T01:59:05.048Z,7.00
2019-03-05T02:00:05.382Z,7.00
2019-03-05T02:01:05.296Z,7.00
2019-03-05T02:02:05.129Z,7.00
2019-03-05T02:03:05.134Z,6.94
2019-03-05T02:04:05.370Z,7.00
2019-03-05T02:05:06.030Z,6.94
2019-03-05T02:06:05.921Z,6.94
2019-03-05T02:07:05.613Z,6.94
2019-03-05T02:08:05.228Z,6.94
2019-03-05T02:09:05.547Z,6.88
2019-03-05T02:10:05.437Z,6.88
2019-03-05T02:11:06.028Z,6.88
2019-03-05T02:12:05.975Z,6.94
2019-03-05T02:13:05.223Z,6.88
2019-03-05T02:14:05.857Z,6.88
2019-03-05T02:15:05.781Z,6.81
2019-03-05T02:16:05.451Z,6.81
2019-03-05T02:17:05.469Z,6.81
2019-03-05T02:18:05.524Z,6.81
2019-03-05T02:19:05.703Z,6.81
2019-03-05T02:20:05.378Z,6.81
2019-03-05T02:21:05.538Z,6.75
2019-03-05T02:22:05.529Z,6.75
2019-03-05T02:23:05.677Z,6.75
2019-03-05T02:24:05.939Z,6.69
2019-03-05T02:25:06.023Z,6.69
2019-03-05T02:26:05.066Z,6.69
2019-03-05T02:27:05.211Z,6.62
2019-03-05T02:28:05.852Z,6.62
2019-03-05T02:29:05.850Z,6.62
2019-03-05T02:30:05.290Z,6.62
2019-03-05T02:31:06.021Z,6.62
2019-03-05T02:32:05.046Z,6.62
2019-03-05T02:33:05.698Z,6.62
2019-03-05T02:34:05.932Z,6.56
2019-03-05T02:35:05.053Z,6.62
2019-03-05T02:36:05.528Z,6.56
2019-03-05T02:37:05.626Z,6.50
2019-03-05T02:38:06.068Z,6.50
2019-03-05T02:39:05.619Z,6.50
2019-03-05T02:40:05.133Z,6.50
2019-03-05T02:41:05.138Z,6.44
2019-03-05T02:42:05.311Z,6.44
2019-03-05T02:43:05.297Z,6.38
2019-03-05T02:44:05.687Z,6.38
2019-03-05T02:45:05.694Z,6.38
2019-03-05T02:46:05.846Z,6.38
2019-03-05T02:47:05.323Z,6.38
2019-03-05T02:48:05.377Z,6.44
2019-03-05T02:49:05.684Z,6.44
2019-03-05T02:50:05.135Z,6.44
2019-03-05T02:51:05.028Z,6.44
2019-03-05T02:52:05.382Z,6.44
2019-03-05T02:53:05.373Z,6.44
2019-03-05T02:54:05.953Z,6.44
2019-03-05T02:55:05.055Z,6.44
2019-03-05T02:56:05.692Z,6.50
2019-03-05T02:57:05.634Z,6.44
2019-03-05T02:58:05.238Z,6.44
2019-03-05T02:59:05.478Z,6.50
2019-03-05T03:00:05.466Z,6.50
2019-03-05T03:01:05.573Z,6.50
2019-03-05T03:02:05.955Z,6.50
2019-03-05T03:03:06.042Z,6.50
2019-03-05T03:04:05.206Z,6.50
2019-03-05T03:05:05.138Z,6.50
2019-03-05T03:06:05.690Z,6.50
2019-03-05T03:07:05.695Z,6.50
2019-03-05T03:08:05.417Z,6.50
2019-03-05T03:09:05.544Z,6.50
2019-03-05T03:10:06.018Z,6.50
2019-03-05T03:11:06.019Z,6.50
2019-03-05T03:12:05.465Z,6.50
2019-03-05T03:13:05.458Z,6.56
2019-03-05T03:14:05.449Z,6.56
2019-03-05T03:15:05.228Z,6.56
2019-03-05T03:16:06.111Z,6.56
2019-03-05T03:17:05.392Z,6.56
2019-03-05T03:18:05.516Z,6.56
2019-03-05T03:19:05.653Z,6.56
2019-03-05T03:20:05.140Z,6.56
2019-03-05T03:21:05.439Z,6.56
2019-03-05T03:22:05.704Z,6.56
2019-03-05T03:23:05.877Z,6.56
2019-03-05T03:24:06.004Z,6.56
2019-03-05T03:25:05.300Z,6.56
2019-03-05T03:26:05.860Z,6.56
2019-03-05T03:27:07.010Z,6.56
2019-03-05T03:28:05.372Z,6.56
2019-03-05T03:29:05.381Z,6.56
2019-03-05T03:30:05.857Z,6.56
2019-03-05T03:31:05.327Z,6.56
2019-03-05T03:32:05.488Z,6.56
2019-03-05T03:33:05.410Z,6.50
2019-03-05T03:34:05.519Z,6.56
2019-03-05T03:35:05.721Z,6.56
2019-03-05T03:36:05.758Z,6.56
2019-03-05T03:37:05.947Z,6.50
2019-03-05T03:38:05.937Z,6.50
2019-03-05T03:39:05.910Z,6.50
2019-03-05T03:40:06.205Z,6.50
2019-03-05T03:41:05.690Z,6.50
2019-03-05T03:42:05.227Z,6.44
2019-03-05T03:43:05.617Z,6.69
2019-03-05T03:44:05.855Z,6.81
2019-03-05T03:45:05.775Z,6.88
2019-03-05T03:46:05.854Z,7.19
2019-03-05T03:47:05.777Z,7.12
2019-03-05T03:48:05.062Z,7.00
2019-03-05T03:49:05.231Z,6.88
2019-03-05T03:50:05.633Z,6.81
2019-03-05T03:51:05.605Z,6.75
2019-03-05T03:52:05.158Z,6.69
2019-03-05T03:53:05.545Z,6.69
2019-03-05T03:54:05.711Z,6.62
2019-03-05T03:55:05.769Z,6.56
2019-03-05T03:56:06.007Z,6.50
2019-03-05T03:57:05.050Z,6.50
2019-03-05T03:58:05.760Z,6.44
2019-03-05T03:59:05.150Z,6.44
2019-03-05T04:00:05.202Z,6.38
2019-03-05T04:01:06.905Z,6.38
2019-03-05T04:02:05.619Z,6.38
2019-03-05T04:03:05.108Z,6.38
2019-03-05T04:04:05.457Z,6.38
2019-03-05T04:05:05.537Z,6.38
2019-03-05T04:06:05.675Z,6.38
2019-03-05T04:07:05.716Z,6.38
2019-03-05T04:08:05.763Z,6.38
2019-03-05T04:09:05.775Z,6.38
2019-03-05T04:10:05.852Z,6.38
2019-03-05T04:11:05.954Z,6.38
2019-03-05T04:12:05.913Z,6.38
2019-03-05T04:13:04.974Z,6.38
2019-03-05T04:14:05.693Z,6.38
2019-03-05T04:15:05.858Z,6.31
2019-03-05T04:16:05.528Z,6.31
2019-03-05T04:17:05.934Z,6.31
2019-03-05T04:18:05.181Z,6.31
2019-03-05T04:19:05.307Z,6.31
2019-03-05T04:20:05.436Z,6.31
2019-03-05T04:21:05.929Z,6.31
2019-03-05T04:22:05.365Z,6.31
2019-03-05T04:23:05.472Z,6.31
2019-03-05T04:24:05.473Z,6.25
2019-03-05T04:25:05.686Z,6.25
2019-03-05T04:26:05.939Z,6.25
2019-03-05T04:27:06.021Z,6.25
2019-03-05T04:28:05.446Z,6.25
2019-03-05T04:29:05.855Z,6.25
2019-03-05T04:30:05.198Z,6.25
2019-03-05T04:31:05.373Z,6.25
2019-03-05T04:32:06.013Z,6.25
2019-03-05T04:33:06.013Z,6.25
2019-03-05T04:34:05.536Z,6.19
2019-03-05T04:35:05.527Z,6.19
2019-03-05T04:36:05.777Z,6.19
2019-03-05T04:37:05.702Z,6.19
2019-03-05T04:38:05.774Z,6.19
2019-03-05T04:39:05.940Z,6.19
2019-03-05T04:40:05.295Z,6.19
2019-03-05T04:41:05.763Z,6.19
2019-03-05T04:42:06.021Z,6.12
2019-03-05T04:43:05.048Z,6.12
2019-03-05T04:44:05.229Z,6.12
2019-03-05T04:45:05.300Z,6.12
2019-03-05T04:46:05.624Z,6.12
2019-03-05T04:47:05.718Z,6.12
2019-03-05T04:48:05.761Z,6.06
2019-03-05T04:49:06.007Z,6.12
2019-03-05T04:50:05.289Z,6.12
2019-03-05T04:51:05.855Z,6.06
2019-03-05T04:52:05.527Z,6.06
2019-03-05T04:53:05.855Z,6.12
2019-03-05T04:54:05.928Z,6.12
2019-03-05T04:55:05.526Z,6.12
2019-03-05T04:56:06.089Z,6.12
2019-03-05T04:57:05.153Z,6.12
2019-03-05T04:58:05.838Z,6.19
2019-03-05T04:59:05.302Z,6.19
2019-03-05T05:00:05.691Z,6.19
2019-03-05T05:01:05.708Z,6.19
2019-03-05T05:02:05.774Z,6.19
2019-03-05T05:03:05.765Z,6.12
2019-03-05T05:04:05.293Z,6.12
2019-03-05T05:05:05.282Z,6.12
2019-03-05T05:06:05.756Z,6.12
2019-03-05T05:07:05.856Z,6.12
2019-03-05T05:08:05.049Z,6.12
2019-03-05T05:09:05.198Z,6.19
2019-03-05T05:10:05.431Z,6.19
2019-03-05T05:11:05.058Z,6.19
2019-03-05T05:12:05.771Z,6.19
2019-03-05T05:13:05.687Z,6.19
2019-03-05T05:14:04.987Z,6.25
2019-03-05T05:15:05.306Z,6.31
2019-03-05T05:16:05.287Z,6.38
2019-03-05T05:17:05.532Z,6.44
2019-03-05T05:18:05.943Z,6.50
2019-03-05T05:19:05.131Z,6.56
2019-03-05T05:20:05.681Z,6.62
2019-03-05T05:21:05.378Z,6.69
2019-03-05T05:22:05.444Z,6.75
2019-03-05T05:23:05.536Z,6.94
2019-03-05T05:24:05.607Z,6.88
2019-03-05T05:25:05.796Z,6.94
2019-03-05T05:26:05.910Z,6.88
2019-03-05T05:27:05.291Z,6.88
2019-03-05T05:28:05.837Z,6.81
2019-03-05T05:29:05.863Z,6.81
2019-03-05T05:30:05.312Z,6.94
2019-03-05T05:31:05.543Z,7.06
2019-03-05T05:32:05.453Z,7.06
2019-03-05T05:33:05.531Z,7.06
2019-03-05T05:34:05.214Z,7.12
2019-03-05T05:35:05.271Z,7.12
2019-03-05T05:36:05.438Z,7.06
2019-03-05T05:37:06.023Z,7.12
2019-03-05T05:38:05.141Z,7.12
2019-03-05T05:39:05.303Z,7.12
2019-03-05T05:40:05.413Z,7.06
2019-03-05T05:41:05.942Z,7.06
2019-03-05T05:42:05.784Z,7.06
2019-03-05T05:43:05.946Z,7.06
2019-03-05T05:44:06.003Z,7.06
2019-03-05T05:45:05.469Z,6.94
2019-03-05T05:46:05.611Z,6.81
2019-03-05T05:47:05.612Z,6.75
2019-03-05T05:48:05.870Z,6.62
2019-03-05T05:49:05.931Z,6.50
2019-03-05T05:50:05.278Z,6.44
2019-03-05T05:51:05.379Z,6.31
2019-03-05T05:52:05.310Z,6.25
2019-03-05T05:53:05.209Z,6.19
2019-03-05T05:54:05.524Z,6.19
2019-03-05T05:55:05.133Z,6.12
2019-03-05T05:56:05.030Z,6.06
2019-03-05T05:57:05.671Z,6.00
2019-03-05T05:58:06.082Z,6.00
2019-03-05T05:59:05.131Z,5.94
2019-03-05T06:00:05.441Z,5.88
2019-03-05T06:01:05.628Z,5.88
2019-03-05T06:02:05.626Z,5.88
2019-03-05T06:03:05.676Z,5.94
2019-03-05T06:04:06.013Z,5.88
2019-03-05T06:05:05.309Z,5.88
2019-03-05T06:06:05.462Z,5.81
2019-03-05T06:07:06.085Z,5.81
2019-03-05T06:08:05.561Z,5.81
2019-03-05T06:09:05.454Z,5.81
2019-03-05T06:10:05.532Z,5.81
2019-03-05T06:11:05.852Z,5.81
2019-03-05T06:12:06.008Z,5.75
2019-03-05T06:13:05.707Z,5.75
2019-03-05T06:14:05.457Z,5.81
2019-03-05T06:15:05.684Z,5.75
2019-03-05T06:16:05.937Z,5.75
2019-03-05T06:17:05.291Z,5.69
2019-03-05T06:18:05.767Z,5.69
2019-03-05T06:19:05.375Z,5.62
2019-03-05T06:20:06.025Z,5.62
2019-03-05T06:21:05.367Z,5.56
2019-03-05T06:22:05.843Z,5.50
2019-03-05T06:23:06.029Z,5.50
2019-03-05T06:24:05.217Z,5.44
2019-03-05T06:25:05.153Z,5.56
2019-03-05T06:26:08.530Z,5.50
2019-03-05T06:27:05.144Z,5.44
2019-03-05T06:28:06.570Z,6.06
2019-03-05T06:29:05.132Z,6.25
2019-03-05T06:30:05.684Z,6.12
2019-03-05T06:31:05.202Z,6.00
2019-03-05T06:32:05.360Z,5.88
2019-03-05T06:33:06.113Z,5.75
2019-03-05T06:34:06.110Z,5.69
2019-03-05T06:35:05.115Z,5.56
2019-03-05T06:36:05.474Z,5.50
2019-03-05T06:37:05.465Z,5.44
2019-03-05T06:38:05.437Z,5.44
2019-03-05T06:39:06.016Z,5.38
2019-03-05T06:40:05.623Z,5.31
2019-03-05T06:41:06.026Z,5.31
2019-03-05T06:42:06.165Z,5.38
2019-03-05T06:43:05.883Z,5.31
2019-03-05T06:44:05.945Z,5.38
2019-03-05T06:45:05.454Z,5.44
2019-03-05T06:46:05.290Z,5.44
2019-03-05T06:47:05.696Z,5.44
2019-03-05T06:48:06.091Z,5.44
2019-03-05T06:49:05.552Z,5.50
2019-03-05T06:50:05.773Z,5.50
2019-03-05T06:51:05.858Z,5.62
2019-03-05T06:52:05.468Z,5.81
2019-03-05T06:53:05.657Z,5.94
2019-03-05T06:54:05.615Z,6.06
2019-03-05T06:55:05.616Z,6.25
2019-03-05T06:56:05.302Z,6.38
2019-03-05T06:57:05.372Z,6.50
2019-03-05T06:58:05.597Z,6.62
2019-03-05T06:59:05.796Z,6.75
2019-03-05T07:00:05.857Z,6.88
2019-03-05T07:01:05.944Z,6.94
2019-03-05T07:02:05.375Z,7.19
2019-03-05T07:03:05.931Z,7.25
2019-03-05T07:04:05.599Z,7.31
2019-03-05T07:05:05.045Z,7.38
2019-03-05T07:06:05.210Z,7.50
2019-03-05T07:07:05.878Z,7.56
2019-03-05T07:08:05.765Z,7.69
2019-03-05T07:09:05.226Z,7.75
2019-03-05T07:10:05.140Z,7.81
2019-03-05T07:11:05.399Z,7.94
2019-03-05T07:12:05.302Z,8.00
2019-03-05T07:13:05.461Z,8.12
2019-03-05T07:14:05.435Z,8.19
2019-03-05T07:15:06.095Z,8.31
2019-03-05T07:16:05.459Z,8.44
2019-03-05T07:17:05.853Z,8.56
2019-03-05T07:18:05.053Z,8.69
2019-03-05T07:19:05.050Z,8.81
2019-03-05T07:20:05.382Z,8.94
2019-03-05T07:21:05.380Z,9.06
2019-03-05T07:22:06.011Z,9.12
2019-03-05T07:23:05.465Z,9.25
2019-03-05T07:24:05.678Z,9.31
2019-03-05T07:25:05.768Z,9.50
2019-03-05T07:26:05.389Z,9.50
2019-03-05T07:27:05.694Z,9.50
2019-03-05T07:28:05.769Z,9.50
2019-03-05T07:29:05.765Z,9.50
2019-03-05T07:30:05.049Z,9.56
2019-03-05T07:31:05.372Z,9.62
2019-03-05T07:32:05.684Z,9.62
2019-03-05T07:33:05.869Z,9.56
2019-03-05T07:34:05.202Z,9.56
2019-03-05T07:35:05.595Z,9.56
2019-03-05T07:36:05.847Z,9.56
2019-03-05T07:37:05.290Z,9.56
2019-03-05T07:38:05.444Z,9.56
2019-03-05T07:39:05.534Z,9.50
2019-03-05T07:40:05.685Z,9.50
2019-03-05T07:41:05.769Z,9.56
2019-03-05T07:42:05.884Z,9.56
2019-03-05T07:43:06.031Z,9.62
2019-03-05T07:44:05.944Z,9.69
2019-03-05T07:45:05.214Z,9.69
2019-03-05T07:46:05.856Z,9.75
2019-03-05T07:47:05.069Z,9.75
2019-03-05T07:48:05.148Z,9.75
2019-03-05T07:49:05.228Z,9.81
2019-03-05T07:50:05.619Z,9.81
2019-03-05T07:51:05.803Z,9.88
2019-03-05T07:52:05.961Z,9.94
2019-03-05T07:53:05.164Z,10.00
2019-03-05T07:54:05.378Z,10.00
2019-03-05T07:55:13.410Z,10.00
2019-03-05T07:56:05.378Z,10.00
2019-03-05T07:57:05.705Z,10.06
2019-03-05T07:58:05.930Z,10.06
2019-03-05T07:59:05.207Z,10.06
2019-03-05T08:00:05.621Z,10.06
2019-03-05T08:01:05.248Z,10.06
2019-03-05T08:02:05.206Z,10.12
2019-03-05T08:03:05.235Z,10.06
2019-03-05T08:04:05.210Z,10.12
2019-03-05T08:05:05.466Z,10.19
2019-03-05T08:06:06.028Z,10.19
2019-03-05T08:07:05.145Z,10.12
2019-03-05T08:08:05.120Z,10.06
2019-03-05T08:09:06.180Z,10.00
2019-03-05T08:10:05.684Z,10.00
2019-03-05T08:11:05.790Z,10.00
2019-03-05T08:12:05.776Z,9.94
2019-03-05T08:13:06.042Z,9.94
2019-03-05T08:14:05.363Z,9.94
2019-03-05T08:15:05.449Z,9.88
2019-03-05T08:16:05.608Z,9.88
2019-03-05T08:17:05.693Z,9.81
2019-03-05T08:18:06.272Z,9.81
2019-03-05T08:19:05.614Z,9.81
2019-03-05T08:20:06.006Z,9.81
2019-03-05T08:21:05.693Z,9.81
2019-03-05T08:22:08.541Z,9.88
2019-03-05T08:23:05.383Z,9.88
2019-03-05T08:24:05.377Z,9.88
2019-03-05T08:25:05.546Z,9.88
2019-03-05T08:26:05.609Z,9.88
2019-03-05T08:27:05.609Z,9.88
2019-03-05T08:28:05.844Z,9.88
2019-03-05T08:29:06.422Z,9.81
2019-03-05T08:30:13.656Z,9.81
2019-03-05T08:31:05.224Z,9.81
2019-03-05T08:32:05.390Z,9.81
2019-03-05T08:33:05.282Z,9.81
2019-03-05T08:34:05.773Z,9.75
2019-03-05T08:35:05.221Z,9.69
2019-03-05T08:36:05.265Z,9.69
2019-03-05T08:37:05.531Z,9.69
2019-03-05T08:38:05.781Z,9.69
2019-03-05T08:39:05.404Z,9.62
2019-03-05T08:40:05.384Z,9.62
2019-03-05T08:41:05.692Z,9.56
2019-03-05T08:42:05.138Z,9.50
2019-03-05T08:43:05.539Z,9.50
2019-03-05T08:44:05.166Z,9.50
2019-03-05T08:45:05.368Z,9.50
2019-03-05T08:46:05.840Z,9.50
2019-03-05T08:47:05.062Z,9.44
2019-03-05T08:48:05.528Z,9.44
2019-03-05T08:49:06.096Z,9.44
2019-03-05T08:50:05.701Z,9.44
2019-03-05T08:51:05.874Z,9.44
2019-03-05T08:52:05.846Z,9.44
2019-03-05T08:53:05.956Z,9.44
2019-03-05T08:54:07.779Z,9.44
2019-03-05T08:55:05.369Z,9.44
2019-03-05T08:56:05.786Z,9.44
2019-03-05T08:57:05.785Z,9.50
2019-03-05T08:58:05.861Z,9.44
2019-03-05T08:59:05.507Z,9.44
2019-03-05T09:00:05.370Z,9.38
2019-03-05T09:01:05.945Z,9.38
2019-03-05T09:02:05.464Z,9.38
2019-03-05T09:03:05.544Z,9.38
2019-03-05T09:04:06.695Z,9.38
2019-03-05T09:05:06.011Z,9.38
2019-03-05T09:06:06.093Z,9.38
2019-03-05T09:07:05.218Z,9.38
2019-03-05T09:08:05.637Z,9.38
2019-03-05T09:09:05.641Z,9.31
2019-03-05T09:10:05.701Z,9.31
2019-03-05T09:11:05.945Z,9.31
2019-03-05T09:12:05.132Z,9.31
2019-03-05T09:13:05.219Z,9.25
2019-03-05T09:14:05.223Z,9.25
2019-03-05T09:15:05.545Z,9.19
2019-03-05T09:16:05.676Z,9.19
2019-03-05T09:17:05.245Z,9.19
2019-03-05T09:18:05.307Z,9.25
2019-03-05T09:19:05.612Z,9.19
2019-03-05T09:20:05.771Z,9.25
2019-03-05T09:21:05.223Z,9.25
2019-03-05T09:22:05.277Z,9.25
2019-03-05T09:23:05.363Z,9.25
2019-03-05T09:24:05.607Z,9.25
2019-03-05T09:25:05.066Z,9.25
2019-03-05T09:26:05.130Z,9.25
2019-03-05T09:27:05.625Z,9.25
2019-03-05T09:28:07.307Z,9.25
2019-03-05T09:29:05.933Z,9.25
2019-03-05T09:30:05.119Z,9.25
2019-03-05T09:31:05.237Z,9.31
2019-03-05T09:32:05.195Z,9.31
2019-03-05T09:33:05.781Z,9.31
2019-03-05T09:34:05.192Z,9.31
2019-03-05T09:35:05.692Z,9.31
2019-03-05T09:36:05.998Z,9.31
2019-03-05T09:37:05.128Z,9.38
2019-03-05T09:38:05.291Z,9.38
2019-03-05T09:39:05.954Z,9.38
2019-03-05T09:40:06.003Z,9.44
2019-03-05T09:41:05.153Z,9.44
2019-03-05T09:42:05.143Z,9.44
2019-03-05T09:43:05.293Z,9.50
2019-03-05T09:44:05.466Z,9.50
2019-03-05T09:45:05.699Z,9.50
2019-03-05T09:46:05.783Z,9.56
2019-03-05T09:47:06.021Z,9.50
2019-03-05T09:48:05.541Z,9.56
2019-03-05T09:49:05.550Z,9.62
2019-03-05T09:50:05.540Z,9.62
2019-03-05T09:51:05.692Z,9.62
2019-03-05T09:52:05.325Z,9.62
2019-03-05T09:53:05.373Z,9.62
2019-03-05T09:54:05.537Z,9.69
2019-03-05T09:55:05.676Z,9.69
2019-03-05T09:56:05.980Z,9.69
2019-03-05T09:57:05.859Z,9.69
2019-03-05T09:58:08.213Z,9.75
2019-03-05T09:59:05.300Z,9.81
2019-03-05T10:00:05.209Z,9.81
2019-03-05T10:01:05.625Z,9.81
2019-03-05T10:02:05.864Z,9.81
2019-03-05T10:03:05.934Z,9.81
2019-03-05T10:04:05.055Z,9.81
2019-03-05T10:05:05.297Z,9.81
2019-03-05T10:06:05.836Z,9.81
2019-03-05T10:07:05.439Z,9.81
2019-03-05T10:08:05.753Z,9.81
2019-03-05T10:09:05.376Z,9.75
2019-03-05T10:10:05.928Z,9.75
2019-03-05T10:11:05.854Z,9.75
2019-03-05T10:12:05.231Z,9.75
2019-03-05T10:13:05.316Z,9.81
2019-03-05T10:14:05.356Z,9.81
2019-03-05T10:15:06.010Z,9.81
2019-03-05T10:16:05.141Z,9.88
2019-03-05T10:17:05.543Z,9.88
2019-03-05T10:18:12.504Z,9.88
2019-03-05T10:19:05.636Z,9.88
2019-03-05T10:20:05.533Z,9.88
2019-03-05T10:21:05.462Z,9.88
2019-03-05T10:22:06.019Z,9.88
2019-03-05T10:23:05.457Z,9.88
2019-03-05T10:24:10.289Z,9.88
2019-03-05T10:25:05.769Z,9.88
2019-03-05T10:26:05.921Z,9.88
2019-03-05T10:27:05.850Z,9.81
2019-03-05T10:28:05.466Z,9.81
2019-03-05T10:29:05.762Z,9.81
2019-03-05T10:30:05.123Z,9.81
2019-03-05T10:31:05.216Z,9.81
2019-03-05T10:32:05.334Z,9.81
2019-03-05T10:33:05.215Z,9.81
2019-03-05T10:34:05.843Z,9.81
2019-03-05T10:35:05.063Z,9.81
2019-03-05T10:36:05.118Z,9.81
2019-03-05T10:37:12.530Z,9.75
2019-03-05T10:38:05.054Z,9.75
2019-03-05T10:39:05.293Z,9.75
2019-03-05T10:40:05.680Z,9.75
2019-03-05T10:41:05.046Z,9.75
2019-03-05T10:42:05.303Z,9.75
2019-03-05T10:43:08.627Z,9.75
2019-03-05T10:44:05.435Z,9.69
2019-03-05T10:45:05.950Z,9.69
2019-03-05T10:46:05.934Z,9.69
2019-03-05T10:47:05.041Z,9.62
2019-03-05T10:48:05.447Z,9.62
2019-03-05T10:49:05.698Z,9.56
2019-03-05T10:50:14.971Z,9.56
2019-03-05T10:51:05.318Z,9.50
2019-03-05T10:52:05.291Z,9.44
2019-03-05T10:53:06.013Z,9.44
2019-03-05T10:54:05.618Z,9.44
2019-03-05T10:55:05.048Z,9.38
2019-03-05T10:56:05.125Z,9.31
2019-03-05T10:57:05.389Z,9.25
2019-03-05T10:58:05.358Z,9.25
2019-03-05T10:59:05.782Z,9.25
2019-03-05T11:00:05.055Z,9.19
2019-03-05T11:01:05.298Z,9.19
2019-03-05T11:02:05.684Z,9.12
2019-03-05T11:03:05.763Z,9.12
2019-03-05T11:04:05.538Z,9.06
2019-03-05T11:05:05.529Z,9.06
2019-03-05T11:06:05.209Z,9.06
2019-03-05T11:07:05.291Z,9.00
2019-03-05T11:08:05.635Z,8.94
2019-03-05T11:09:05.530Z,8.94
2019-03-05T11:10:05.709Z,8.88
2019-03-05T11:11:13.274Z,8.88
2019-03-05T11:12:05.374Z,8.81
2019-03-05T11:13:05.693Z,8.81
2019-03-05T11:14:05.605Z,8.75
2019-03-05T11:15:06.032Z,8.75
2019-03-05T11:16:05.921Z,8.69
2019-03-05T11:17:05.280Z,8.62
2019-03-05T11:18:05.374Z,8.62
2019-03-05T11:19:05.226Z,8.62
2019-03-05T11:20:05.220Z,8.56
2019-03-05T11:21:05.686Z,8.50
2019-03-05T11:22:05.695Z,8.50
2019-03-05T11:23:05.131Z,8.50
2019-03-05T11:24:05.055Z,8.44
2019-03-05T11:25:05.699Z,8.44
2019-03-05T11:26:05.380Z,8.38
2019-03-05T11:27:05.867Z,8.38
2019-03-05T11:28:05.772Z,8.38
2019-03-05T11:29:05.942Z,8.38
2019-03-05T11:30:06.037Z,8.31
2019-03-05T11:31:06.031Z,8.38
2019-03-05T11:32:05.318Z,8.31
2019-03-05T11:33:05.607Z,8.31
2019-03-05T11:34:05.948Z,8.31
2019-03-05T11:35:05.836Z,8.31
2019-03-05T11:36:06.118Z,8.31
2019-03-05T11:37:05.705Z,8.25
2019-03-05T11:38:05.702Z,8.31
2019-03-05T11:39:05.847Z,8.31
2019-03-05T11:40:05.853Z,8.31
2019-03-05T11:41:05.230Z,8.25
2019-03-05T11:42:05.451Z,8.25
2019-03-05T11:43:05.938Z,8.19
2019-03-05T11:44:06.022Z,8.19
2019-03-05T11:45:07.710Z,8.19
2019-03-05T11:46:05.772Z,8.19
2019-03-05T11:47:05.220Z,8.25
2019-03-05T11:48:05.451Z,8.19
2019-03-05T11:49:05.591Z,8.19
2019-03-05T11:50:05.235Z,8.19
2019-03-05T11:51:05.412Z,8.19
2019-03-05T11:52:05.393Z,8.19
2019-03-05T11:53:05.361Z,8.12
2019-03-05T11:54:05.458Z,8.12
2019-03-05T11:55:05.526Z,8.12
2019-03-05T11:56:04.969Z,8.12
2019-03-05T11:57:05.213Z,8.12
2019-03-05T11:58:05.181Z,8.06
2019-03-05T11:59:05.291Z,8.06
2019-03-05T12:00:05.291Z,8.06
2019-03-05T12:01:05.957Z,8.06
2019-03-05T12:02:06.021Z,8.06
2019-03-05T12:03:05.111Z,8.06
2019-03-05T12:04:05.294Z,8.06
2019-03-05T12:05:05.772Z,8.00
2019-03-05T12:06:05.871Z,8.00
2019-03-05T12:07:05.860Z,8.00
2019-03-05T12:08:04.976Z,8.00
2019-03-05T12:09:05.691Z,8.00
2019-03-05T12:10:05.791Z,7.94
2019-03-05T12:11:05.455Z,7.94
2019-03-05T12:12:05.777Z,7.94
2019-03-05T12:13:05.300Z,7.94
2019-03-05T12:14:05.298Z,7.94
2019-03-05T12:15:05.369Z,7.88
2019-03-05T12:16:05.662Z,7.94
2019-03-05T12:17:05.194Z,7.94
2019-03-05T12:18:05.757Z,7.88
2019-03-05T12:19:05.927Z,7.88
2019-03-05T12:20:05.138Z,7.88
2019-03-05T12:21:05.778Z,7.88
2019-03-05T12:22:06.006Z,7.88
2019-03-05T12:23:06.551Z,7.88
2019-03-05T12:24:05.781Z,7.88
2019-03-05T12:25:05.846Z,7.94
2019-03-05T12:26:05.936Z,7.94
2019-03-05T12:27:05.597Z,7.94
2019-03-05T12:28:10.042Z,7.94
2019-03-05T12:29:05.543Z,7.94
2019-03-05T12:30:05.934Z,7.94
2019-03-05T12:31:05.149Z,8.00
2019-03-05T12:32:05.134Z,8.00
2019-03-05T12:33:06.551Z,8.00
2019-03-05T12:34:05.227Z,8.06
2019-03-05T12:35:05.758Z,8.00
2019-03-05T12:36:05.227Z,8.06
2019-03-05T12:37:05.528Z,8.06
2019-03-05T12:38:05.224Z,8.06
2019-03-05T12:39:05.773Z,8.06
2019-03-05T12:40:05.221Z,8.00
2019-03-05T12:41:05.787Z,8.00
2019-03-05T12:42:05.059Z,8.00
2019-03-05T12:43:05.532Z,8.00
2019-03-05T12:44:05.853Z,7.94
2019-03-05T12:45:05.216Z,7.94
2019-03-05T12:46:05.536Z,7.94
2019-03-05T12:47:05.844Z,7.94
2019-03-05T12:48:05.852Z,7.94
2019-03-05T12:49:06.079Z,7.94
2019-03-05T12:50:05.783Z,7.94
2019-03-05T12:51:05.852Z,7.94
2019-03-05T12:52:05.370Z,7.88
2019-03-05T12:53:05.081Z,7.88
2019-03-05T12:54:05.308Z,7.88
2019-03-05T12:55:05.447Z,7.81
2019-03-05T12:56:05.627Z,7.81
2019-03-05T12:57:05.628Z,7.81
2019-03-05T12:58:06.014Z,7.81
2019-03-05T12:59:05.215Z,7.75
2019-03-05T13:00:05.381Z,7.75
2019-03-05T13:01:05.930Z,7.75
2019-03-05T13:02:05.845Z,7.75
2019-03-05T13:03:05.619Z,7.69
2019-03-05T13:04:05.698Z,7.69
2019-03-05T13:05:05.439Z,7.69
2019-03-05T13:06:05.605Z,7.62
2019-03-05T13:07:05.858Z,7.62
2019-03-05T13:08:05.295Z,7.62
2019-03-05T13:09:05.434Z,7.56
2019-03-05T13:10:05.842Z,7.56
2019-03-05T13:11:05.310Z,7.50
2019-03-05T13:12:05.134Z,7.56
2019-03-05T13:13:05.766Z,7.50
2019-03-05T13:14:08.416Z,7.56
2019-03-05T13:15:05.528Z,7.50
2019-03-05T13:16:05.121Z,7.50
2019-03-05T13:17:05.592Z,7.50